Time;durP1;ratioP1;P1;durP2;ratioP2;P2;SDS_P1;SDS_P2;PMS_P1;PMS_P2;Temp;Humidity;BMP_temperature;BMP_pressure;BME280_temperature;BME280_humidity;BME280_pressure;Samples;Min_cycle;Max_cycle;Signal;HPM_P1;HPM_P2
2021/05/10 00:02:17;;;;;;;6.70;5.65;;;11.40;99.90;;;;;;4926622;28;20921;-65
2021/05/10 00:04:44;;;;;;;6.20;4.88;;;11.50;99.90;;;;;;4924183;29;20050;-65
2021/05/10 00:07:11;;;;;;;5.88;4.95;;;11.50;99.90;;;;;;4926674;29;20114;-65
2021/05/10 00:09:37;;;;;;;5.45;4.43;;;11.50;99.90;;;;;;4924889;29;20139;-65
2021/05/10 00:12:04;;;;;;;5.90;5.07;;;11.50;99.90;;;;;;4925285;29;20510;-65
2021/05/10 00:14:48;;;;;;;10.27;5.47;;;11.50;99.90;;;;;;4920713;29;20140;-65
2021/05/10 00:17:15;;;;;;;5.68;5.05;;;11.50;99.90;;;;;;4927769;29;20098;-65
2021/05/10 00:19:42;;;;;;;4.70;4.10;;;11.50;99.90;;;;;;4923818;29;20142;-65
2021/05/10 00:22:08;;;;;;;5.22;4.72;;;11.50;99.90;;;;;;4924867;29;20059;-65
2021/05/10 00:24:35;;;;;;;6.30;5.07;;;11.60;99.90;;;;;;4923819;29;20631;-65
2021/05/10 00:27:01;;;;;;;6.18;5.57;;;11.50;99.90;;;;;;4926560;29;20044;-65
2021/05/10 00:29:27;;;;;;;5.38;4.88;;;11.60;99.90;;;;;;4919939;29;20190;-65
2021/05/10 00:31:54;;;;;;;8.30;5.75;;;11.60;99.90;;;;;;4924697;29;20052;-65
2021/05/10 00:34:21;;;;;;;7.82;4.68;;;11.70;99.90;;;;;;4918454;29;20471;-65
2021/05/10 00:36:47;;;;;;;7.80;5.25;;;11.70;99.90;;;;;;4923496;29;20050;-64
2021/05/10 00:39:14;;;;;;;5.65;4.70;;;11.70;99.90;;;;;;4924978;29;20036;-65
2021/05/10 00:41:40;;;;;;;6.47;4.03;;;11.70;99.90;;;;;;4921265;29;20135;-65
2021/05/10 00:44:07;;;;;;;5.45;4.82;;;11.70;99.90;;;;;;4922901;29;20106;-65
2021/05/10 00:46:34;;;;;;;4.55;4.07;;;11.70;99.90;;;;;;4922736;29;20050;-65
2021/05/10 00:49:01;;;;;;;6.47;4.50;;;11.60;99.90;;;;;;4926117;29;20051;-65
2021/05/10 00:51:28;;;;;;;4.70;4.30;;;11.60;99.90;;;;;;4921649;29;20067;-65
2021/05/10 00:53:54;;;;;;;6.30;4.18;;;11.60;99.90;;;;;;4923391;29;20102;-65
2021/05/10 00:56:20;;;;;;;5.72;4.43;;;11.60;99.90;;;;;;4934714;28;20075;-65
2021/05/10 00:58:49;;;;;;;7.97;4.72;;;11.50;99.90;;;;;;4923180;29;20052;-65
2021/05/10 01:01:16;;;;;;;5.75;4.50;;;11.50;99.90;;;;;;4925164;29;20111;-65
2021/05/10 01:03:46;;;;;;;5.40;4.90;;;11.50;99.90;;;;;;4923096;29;20056;-65
2021/05/10 01:06:13;;;;;;;;;;;11.40;99.90;;;;;;4926980;28;20070;-65
2021/05/10 01:08:39;;;;;;;6.00;4.65;;;11.40;99.90;;;;;;4921371;29;19926;-65
2021/05/10 01:11:06;;;;;;;7.15;4.88;;;11.40;99.90;;;;;;4944697;28;20107;-65
2021/05/10 01:13:32;;;;;;;5.85;4.32;;;11.30;99.90;;;;;;4919894;29;20135;-65
2021/05/10 01:15:59;;;;;;;5.65;5.00;;;11.30;99.90;;;;;;4924854;29;20103;-65
2021/05/10 01:18:26;;;;;;;6.32;5.65;;;11.20;99.90;;;;;;4922236;29;20601;-65
2021/05/10 01:20:54;;;;;;;8.20;5.95;;;11.10;99.90;;;;;;4929039;29;20636;-65
2021/05/10 01:23:21;;;;;;;8.15;4.95;;;11.00;99.90;;;;;;4921745;28;20056;-65
2021/05/10 01:25:49;;;;;;;8.52;6.45;;;11.00;99.90;;;;;;4929208;29;20099;-65
2021/05/10 01:28:16;;;;;;;10.05;5.65;;;10.90;99.90;;;;;;4921870;29;20087;-65
2021/05/10 01:30:48;;;;;;;7.00;5.38;;;10.90;99.90;;;;;;4925562;29;20067;-65
2021/05/10 01:33:16;;;;;;;7.18;5.22;;;10.80;99.90;;;;;;4937528;28;20133;-65
2021/05/10 01:35:44;;;;;;;7.03;5.35;;;10.70;99.90;;;;;;4911355;29;20063;-65
2021/05/10 01:38:11;;;;;;;7.65;6.15;;;10.70;99.90;;;;;;4920013;29;20106;-66
2021/05/10 01:40:39;;;;;;;6.97;6.28;;;10.60;99.90;;;;;;4924595;29;20112;-65
2021/05/10 01:43:06;;;;;;;7.93;5.55;;;10.60;99.90;;;;;;4923056;29;20384;-65
2021/05/10 01:45:33;;;;;;;6.60;5.90;;;10.60;99.90;;;;;;4924203;28;20535;-65
2021/05/10 01:48:02;;;;;;;8.57;5.72;;;10.60;99.90;;;;;;4922539;29;20089;-65
2021/05/10 01:50:29;;;;;;;7.25;6.43;;;10.50;99.90;;;;;;4922345;29;20047;-65
2021/05/10 01:52:56;;;;;;;7.80;6.30;;;10.50;99.90;;;;;;4920797;29;20055;-65
2021/05/10 01:55:24;;;;;;;7.45;5.95;;;10.50;99.90;;;;;;4926163;28;20488;-65
2021/05/10 01:57:52;;;;;;;8.73;7.32;;;10.40;99.90;;;;;;4920617;29;20449;-65
2021/05/10 02:00:24;;;;;;;8.57;6.50;;;10.40;99.90;;;;;;4921876;29;20055;-65
2021/05/10 02:02:51;;;;;;;16.15;8.82;;;10.30;99.90;;;;;;4924690;29;20103;-65
2021/05/10 02:05:20;;;;;;;8.30;5.10;;;10.30;99.90;;;;;;4922962;29;20154;-65
2021/05/10 02:07:49;;;;;;;7.68;6.75;;;10.30;99.90;;;;;;4916831;29;20055;-65
2021/05/10 02:10:18;;;;;;;9.38;6.75;;;10.30;99.90;;;;;;4919006;29;20056;-65
2021/05/10 02:13:16;;;;;;;7.10;6.13;;;10.20;99.90;;;;;;4925108;29;20051;-66
2021/05/10 02:15:48;;;;;;;10.02;6.82;;;10.20;99.90;;;;;;4922647;29;20107;-65
2021/05/10 02:18:17;;;;;;;7.53;6.80;;;10.20;99.90;;;;;;4920374;28;20131;-65
2021/05/10 02:20:45;;;;;;;7.43;5.97;;;10.20;99.90;;;;;;4920280;29;20079;-65
2021/05/10 02:23:16;;;;;;;7.53;6.57;;;10.20;99.90;;;;;;4920259;29;20075;-65
2021/05/10 02:25:43;;;;;;;;;;;10.20;99.90;;;;;;4922874;29;20063;-65
2021/05/10 02:28:11;;;;;;;10.48;7.22;;;10.20;99.90;;;;;;4928365;29;19930;-65
2021/05/10 02:30:39;;;;;;;8.40;6.45;;;10.30;99.90;;;;;;4919892;28;20569;-65
2021/05/10 02:33:08;;;;;;;10.52;6.53;;;10.30;99.90;;;;;;4914441;29;20059;-65
2021/05/10 02:35:35;;;;;;;7.03;6.05;;;10.30;99.90;;;;;;4914210;29;20055;-65
2021/05/10 02:38:02;;;;;;;8.00;6.75;;;10.40;99.90;;;;;;4921895;29;20055;-65
2021/05/10 02:40:28;;;;;;;6.05;5.45;;;10.40;99.90;;;;;;4917010;29;20060;-65
2021/05/10 02:42:55;;;;;;;10.50;6.70;;;10.50;99.90;;;;;;4922058;29;20051;-65
2021/05/10 02:45:22;;;;;;;6.63;5.82;;;10.50;99.90;;;;;;4923939;29;20508;-65
2021/05/10 02:47:49;;;;;;;9.30;6.47;;;10.50;99.90;;;;;;4921896;29;20122;-65
2021/05/10 02:50:18;;;;;;;7.22;5.78;;;10.60;99.90;;;;;;4914385;29;20048;-65
2021/05/10 02:52:46;;;;;;;8.80;6.47;;;10.60;99.90;;;;;;4919437;29;20092;-65
2021/05/10 02:55:13;;;;;;;8.75;6.85;;;10.70;99.90;;;;;;4921113;29;20478;-65
2021/05/10 02:57:41;;;;;;;5.38;4.80;;;10.70;99.90;;;;;;4905999;29;20601;-65
2021/05/10 03:00:09;;;;;;;9.18;5.53;;;10.70;99.90;;;;;;4921425;28;20470;-65
2021/05/10 03:02:36;;;;;;;8.50;6.45;;;10.70;99.90;;;;;;4921296;29;20051;-65
2021/05/10 03:05:04;;;;;;;5.90;4.97;;;10.80;99.90;;;;;;4917232;29;20139;-65
2021/05/10 03:07:32;;;;;;;9.93;6.65;;;10.80;99.90;;;;;;4923011;28;20577;-65
2021/05/10 03:09:58;;;;;;;7.70;6.53;;;10.80;99.90;;;;;;4922857;29;20636;-65
2021/05/10 03:12:25;;;;;;;7.78;6.20;;;10.80;99.90;;;;;;4924978;29;20160;-65
2021/05/10 03:14:52;;;;;;;8.27;7.40;;;10.90;99.90;;;;;;4925646;29;20110;-65
2021/05/10 03:17:19;;;;;;;7.18;6.00;;;10.90;99.90;;;;;;4924971;29;20482;-65
2021/05/10 03:19:46;;;;;;;7.25;5.78;;;10.90;99.90;;;;;;4928541;29;20056;-65
2021/05/10 03:22:12;;;;;;;9.23;6.25;;;10.90;99.90;;;;;;4923379;28;20056;-65
2021/05/10 03:24:40;;;;;;;7.40;5.57;;;11.00;99.90;;;;;;4928705;29;20142;-65
2021/05/10 03:27:07;;;;;;;7.78;5.78;;;11.00;99.90;;;;;;4923996;29;20136;-65
2021/05/10 03:29:33;;;;;;;6.75;5.35;;;11.00;99.90;;;;;;4933162;29;20566;-65
2021/05/10 03:32:00;;;;;;;11.50;6.13;;;11.00;99.90;;;;;;4938711;28;20114;-65
2021/05/10 03:34:27;;;;;;;7.07;5.40;;;10.90;99.90;;;;;;4930553;28;20110;-65
2021/05/10 03:36:53;;;;;;;6.70;5.75;;;11.00;99.90;;;;;;4924205;29;20147;-65
2021/05/10 03:39:19;;;;;;;8.07;5.65;;;10.90;99.90;;;;;;4926559;29;20040;-65
2021/05/10 03:41:46;;;;;;;6.35;5.45;;;10.90;99.90;;;;;;4925130;29;20043;-65
2021/05/10 03:44:12;;;;;;;7.00;6.30;;;10.90;99.90;;;;;;4924636;29;20046;-65
2021/05/10 03:46:39;;;;;;;7.03;5.18;;;10.90;99.90;;;;;;4930853;29;20051;-65
2021/05/10 03:49:05;;;;;;;7.35;6.15;;;10.90;99.90;;;;;;4926107;29;20044;-65
2021/05/10 03:51:32;;;;;;;9.30;6.03;;;10.90;99.90;;;;;;4931052;29;20039;-65
2021/05/10 03:53:59;;;;;;;10.75;5.65;;;10.90;99.90;;;;;;4923777;29;20051;-65
2021/05/10 03:56:25;;;;;;;7.25;5.85;;;11.00;99.90;;;;;;4926968;29;20059;-65
2021/05/10 03:58:52;;;;;;;9.25;5.90;;;11.00;99.90;;;;;;4922557;29;20533;-65
2021/05/10 04:01:18;;;;;;;6.32;5.72;;;11.10;99.90;;;;;;4927379;29;20137;-65
2021/05/10 04:14:41;;;;;;;6.20;4.90;;;11.30;99.90;;;;;;4918701;29;20071;-65
2021/05/10 04:17:08;;;;;;;10.15;5.13;;;11.40;99.90;;;;;;4932133;29;20111;-65
2021/05/10 04:19:35;;;;;;;7.00;5.47;;;11.40;99.90;;;;;;4929426;29;20083;-65
2021/05/10 04:22:01;;;;;;;7.35;5.82;;;11.40;99.90;;;;;;4929186;28;20658;-65
2021/05/10 04:24:28;;;;;;;11.75;6.13;;;11.50;99.90;;;;;;4920794;29;20522;-65
2021/05/10 04:26:54;;;;;;;7.30;5.47;;;11.50;99.90;;;;;;4925362;29;20046;-65
2021/05/10 04:29:20;;;;;;;7.32;5.50;;;11.60;99.90;;;;;;4924899;28;20055;-65
2021/05/10 04:31:47;;;;;;;13.38;5.95;;;11.60;99.90;;;;;;4930749;28;20686;-65
2021/05/10 04:34:13;;;;;;;6.05;4.50;;;11.70;99.90;;;;;;4920582;29;20391;-65
2021/05/10 04:36:40;;;;;;;6.20;5.57;;;11.80;99.90;;;;;;4928826;29;20056;-65
2021/05/10 04:39:06;;;;;;;7.50;5.43;;;11.80;99.90;;;;;;4920121;29;20047;-65
2021/05/10 04:41:32;;;;;;;6.40;5.35;;;11.90;99.90;;;;;;4925675;28;20102;-65
2021/05/10 04:44:00;;;;;;;8.10;4.97;;;11.90;99.90;;;;;;4922868;29;20047;-65
2021/05/10 04:46:27;;;;;;;8.68;5.60;;;12.00;99.90;;;;;;4927192;29;20102;-65
2021/05/10 04:48:54;;;;;;;9.50;5.03;;;12.00;99.90;;;;;;4925242;28;20395;-65
2021/05/10 04:51:20;;;;;;;8.05;6.38;;;12.00;99.90;;;;;;4928976;28;20069;-66
2021/05/10 04:53:46;;;;;;;7.47;5.22;;;12.00;99.90;;;;;;4925029;29;20050;-65
2021/05/10 04:56:13;;;;;;;6.95;4.68;;;12.10;99.90;;;;;;4926381;29;20047;-65
2021/05/10 04:58:39;;;;;;;7.43;5.57;;;12.20;99.90;;;;;;4926442;29;20051;-65
2021/05/10 05:01:06;;;;;;;7.00;4.45;;;12.30;99.90;;;;;;4941397;28;20075;-65
2021/05/10 05:03:36;;;;;;;;;;;12.30;99.90;;;;;;4927620;29;20114;-65
2021/05/10 05:06:02;;;;;;;6.75;4.63;;;12.40;99.90;;;;;;4925313;29;20774;-65
2021/05/10 05:08:29;;;;;;;8.32;6.05;;;12.60;99.90;;;;;;4925454;29;20051;-65
2021/05/10 05:10:56;;;;;;;6.53;4.85;;;12.70;99.90;;;;;;4923685;29;20059;-64
2021/05/10 05:13:26;;;;;;;5.60;4.65;;;12.80;99.90;;;;;;4926445;28;20114;-65
2021/05/10 05:15:53;;;;;;;6.45;5.50;;;12.90;99.90;;;;;;4928473;28;20090;-65
2021/05/10 05:18:19;;;;;;;7.63;5.95;;;12.90;99.90;;;;;;4923577;29;20083;-66
2021/05/10 05:20:46;;;;;;;8.35;5.90;;;13.00;99.90;;;;;;4924373;29;20067;-66
2021/05/10 05:23:23;;;;;;;7.57;5.00;;;13.10;99.90;;;;;;4918830;29;20425;-66
2021/05/10 05:25:58;;;;;;;6.07;5.55;;;13.20;99.90;;;;;;4921631;29;20056;-66
2021/05/10 05:28:26;;;;;;;6.00;5.18;;;13.30;99.90;;;;;;4922674;29;20110;-65
2021/05/10 05:30:54;;;;;;;5.22;4.72;;;13.40;99.90;;;;;;4924855;29;20455;-66
2021/05/10 05:33:22;;;;;;;6.75;5.22;;;13.40;99.90;;;;;;4919937;29;20047;-65
2021/05/10 05:35:48;;;;;;;12.95;5.18;;;13.50;99.90;;;;;;4924196;29;20055;-66
2021/05/10 05:38:15;;;;;;;8.55;6.03;;;13.60;99.90;;;;;;4923717;29;20056;-66
2021/05/10 05:40:43;;;;;;;7.22;5.05;;;13.70;99.90;;;;;;4923026;29;20116;-66
2021/05/10 05:43:11;;;;;;;5.15;4.50;;;13.70;99.90;;;;;;4928907;29;20083;-65
2021/05/10 05:45:38;;;;;;;7.07;4.88;;;13.80;99.90;;;;;;4920073;29;20047;-66
2021/05/10 05:48:06;;;;;;;7.68;5.57;;;13.80;99.90;;;;;;4924406;29;20047;-66
2021/05/10 05:50:34;;;;;;;8.20;5.13;;;13.90;99.90;;;;;;4920768;29;20150;-66
2021/05/10 05:53:02;;;;;;;10.98;5.57;;;14.00;99.90;;;;;;4921710;29;20450;-66
2021/05/10 05:55:28;;;;;;;7.82;5.00;;;14.00;99.90;;;;;;4926988;28;20427;-65
2021/05/10 05:57:57;;;;;;;6.47;4.40;;;14.10;99.90;;;;;;4918035;29;20122;-65
2021/05/10 06:00:25;;;;;;;5.53;4.18;;;14.20;99.90;;;;;;4924579;28;20048;-65
2021/05/10 06:02:51;;;;;;;6.72;4.40;;;14.30;99.90;;;;;;4921009;29;20055;-65
2021/05/10 06:05:18;;;;;;;6.38;5.07;;;14.30;99.90;;;;;;4925976;29;20054;-65
2021/05/10 06:07:51;;;;;;;8.68;4.95;;;14.40;99.90;;;;;;4918648;29;20063;-65
2021/05/10 06:10:22;;;;;;;7.93;4.90;;;14.60;99.90;;;;;;4922279;29;20679;-66
2021/05/10 06:12:51;;;;;;;5.47;4.80;;;14.70;99.90;;;;;;4920987;29;20066;-65
2021/05/10 06:15:19;;;;;;;7.20;4.33;;;14.70;99.90;;;;;;938460;28;10002579;-65
2021/05/10 06:17:45;;;;;;;4.35;3.95;;;14.80;99.90;;;;;;4919404;28;20456;-65
2021/05/10 06:20:12;;;;;;;7.72;4.88;;;14.90;99.90;;;;;;4921261;29;20103;-66
2021/05/10 06:22:40;;;;;;;6.45;4.10;;;15.00;99.90;;;;;;4921696;29;20403;-65
2021/05/10 06:25:12;;;;;;;5.72;4.45;;;15.20;99.90;;;;;;4923701;29;20414;-65
2021/05/10 06:27:38;;;;;;;7.97;5.25;;;15.40;99.90;;;;;;4924797;29;20052;-65
2021/05/10 06:30:06;;;;;;;4.32;3.92;;;15.50;99.90;;;;;;4919390;29;20230;-66
2021/05/10 06:32:33;;;;;;;4.47;4.10;;;15.60;99.90;;;;;;4915980;29;20048;-65
2021/05/10 06:35:01;;;;;;;4.25;3.78;;;15.70;99.90;;;;;;4921516;29;20055;-65
2021/05/10 06:37:30;;;;;;;4.47;4.00;;;15.90;99.90;;;;;;4925530;29;20122;-65
2021/05/10 06:39:58;;;;;;;5.05;4.22;;;15.90;99.90;;;;;;4922156;29;20044;-65
2021/05/10 06:42:26;;;;;;;5.95;3.90;;;16.00;99.90;;;;;;4926621;29;20042;-65
2021/05/10 06:44:54;;;;;;;5.80;4.07;;;16.20;99.90;;;;;;4919848;28;20051;-65
2021/05/10 06:47:21;;;;;;;6.43;3.50;;;16.20;99.90;;;;;;4929954;29;20036;-65
2021/05/10 06:49:48;;;;;;;4.13;3.38;;;16.30;99.90;;;;;;4926407;29;20079;-65
2021/05/10 06:52:15;;;;;;;4.15;3.75;;;16.50;99.90;;;;;;4931475;28;20044;-65
2021/05/10 06:54:42;;;;;;;5.97;4.40;;;16.60;99.90;;;;;;4926975;29;20107;-65
2021/05/10 06:57:08;;;;;;;6.45;3.67;;;16.70;99.90;;;;;;4947721;28;20051;-65
2021/05/10 06:59:34;;;;;;;4.93;3.53;;;16.90;99.90;;;;;;4924469;28;20058;-65
2021/05/10 07:02:01;;;;;;;5.07;3.05;;;17.00;99.90;;;;;;4927258;29;20643;-65
2021/05/10 07:04:27;;;;;;;5.75;3.28;;;17.10;99.90;;;;;;4928493;29;20131;-65
2021/05/10 07:06:54;;;;;;;4.28;3.53;;;17.20;99.90;;;;;;4925415;29;20040;-65
2021/05/10 07:09:21;;;;;;;4.97;3.22;;;17.30;99.90;;;;;;4928994;29;20039;-65
2021/05/10 07:11:48;;;;;;;4.88;3.13;;;17.40;99.90;;;;;;4926752;29;20039;-65
2021/05/10 07:14:14;;;;;;;5.57;3.35;;;17.50;99.90;;;;;;4930437;28;20186;-65
2021/05/10 07:16:41;;;;;;;4.75;3.33;;;17.60;99.90;;;;;;4927989;29;20055;-65
2021/05/10 07:19:07;;;;;;;4.03;2.85;;;17.70;99.90;;;;;;4928125;29;20052;-65
2021/05/10 07:21:35;;;;;;;4.75;3.97;;;17.90;99.90;;;;;;4927557;29;20122;-65
2021/05/10 07:24:01;;;;;;;8.90;4.55;;;18.10;99.90;;;;;;4930032;29;20126;-65
2021/05/10 07:26:28;;;;;;;5.40;3.75;;;18.20;99.90;;;;;;4926969;29;20134;-65
2021/05/10 07:28:54;;;;;;;9.40;4.15;;;18.30;99.90;;;;;;4927805;28;20044;-65
2021/05/10 07:31:21;;;;;;;4.03;3.30;;;18.50;99.90;;;;;;4928083;29;20122;-65
2021/05/10 07:33:47;;;;;;;3.95;3.40;;;18.50;99.90;;;;;;4926126;29;20142;-65
2021/05/10 07:36:13;;;;;;;4.75;2.92;;;18.60;99.90;;;;;;4922704;29;20060;-65
2021/05/10 07:38:40;;;;;;;6.20;3.85;;;18.70;99.90;;;;;;4925394;29;20079;-65
2021/05/10 07:41:06;;;;;;;3.75;2.80;;;18.80;99.90;;;;;;4921682;29;20047;-65
2021/05/10 07:43:33;;;;;;;3.33;2.60;;;18.90;99.90;;;;;;4925710;29;20074;-65
2021/05/10 07:45:59;;;;;;;2.78;2.53;;;18.90;99.90;;;;;;4924500;28;20054;-65
2021/05/10 07:48:26;;;;;;;3.70;2.70;;;18.90;99.90;;;;;;4926121;29;20153;-65
2021/05/10 07:50:52;;;;;;;3.95;3.38;;;18.80;99.90;;;;;;4924648;29;20048;-65
2021/05/10 07:53:19;;;;;;;5.93;3.72;;;18.90;99.90;;;;;;4926979;29;20592;-65
2021/05/10 07:55:47;;;;;;;3.78;3.28;;;18.90;99.90;;;;;;4925445;29;20107;-65
2021/05/10 07:58:13;;;;;;;5.22;3.10;;;19.00;99.90;;;;;;4925674;29;20669;-65
2021/05/10 08:00:42;;;;;;;5.18;3.95;;;19.00;99.90;;;;;;4923299;29;20056;-65
2021/05/10 08:03:14;;;;;;;4.97;3.37;;;19.00;99.90;;;;;;4926377;29;20103;-65
2021/05/10 08:05:43;;;;;;;10.32;4.60;;;19.00;99.90;;;;;;4924281;29;20146;-65
2021/05/10 08:08:15;;;;;;;5.50;3.50;;;19.00;99.90;;;;;;4924075;29;20137;-65
2021/05/10 08:10:42;;;;;;;5.57;3.10;;;19.10;99.90;;;;;;4929017;28;20438;-65
2021/05/10 08:13:09;;;;;;;3.78;3.20;;;19.20;99.90;;;;;;4924754;29;20107;-65
2021/05/10 08:15:36;;;;;;;3.60;3.30;;;19.30;99.90;;;;;;4926666;29;20059;-65
2021/05/10 08:18:03;;;;;;;4.20;3.08;;;19.40;99.90;;;;;;4926605;29;20043;-65
2021/05/10 08:20:39;;;;;;;9.73;3.88;;;19.40;99.90;;;;;;4925549;28;20051;-65
2021/05/10 08:23:06;;;;;;;4.43;3.45;;;19.50;99.90;;;;;;4924726;29;20422;-65
2021/05/10 08:25:33;;;;;;;5.50;4.13;;;19.50;99.90;;;;;;4925498;29;20056;-65
2021/05/10 08:27:59;;;;;;;6.18;3.58;;;19.60;99.90;;;;;;4926877;29;20465;-65
2021/05/10 08:30:27;;;;;;;5.47;3.30;;;19.60;99.90;;;;;;4923423;29;20044;-65
2021/05/10 08:32:57;;;;;;;6.07;4.63;;;19.70;99.90;;;;;;4928346;29;20059;-65
2021/05/10 08:35:24;;;;;;;4.47;3.78;;;19.70;99.90;;;;;;4924870;29;20047;-65
2021/05/10 08:38:02;;;;;;;3.83;3.42;;;19.80;99.90;;;;;;4927211;28;20048;-65
2021/05/10 08:40:29;;;;;;;6.22;3.30;;;19.80;99.90;;;;;;4921622;29;20046;-65
2021/05/10 08:42:58;;;;;;;4.05;3.58;;;19.90;99.90;;;;;;4926980;28;20044;-65
2021/05/10 08:45:25;;;;;;;4.80;3.72;;;19.90;99.90;;;;;;4926334;29;20498;-66
2021/05/10 08:47:52;;;;;;;4.10;3.53;;;20.00;99.90;;;;;;4920493;29;20059;-65
2021/05/10 08:50:19;;;;;;;5.57;3.13;;;20.10;99.90;;;;;;4920608;29;20043;-65
2021/05/10 08:52:46;;;;;;;4.40;3.47;;;20.20;99.90;;;;;;4925986;29;20047;-65
2021/05/10 08:55:15;;;;;;;8.07;4.32;;;20.30;99.90;;;;;;4927975;29;20446;-65
2021/05/10 08:57:41;;;;;;;6.60;3.85;;;20.50;99.90;;;;;;4927460;29;20525;-65
2021/05/10 09:00:12;;;;;;;5.70;3.47;;;20.70;99.90;;;;;;4925529;29;20056;-65
2021/05/10 09:02:39;;;;;;;7.55;4.40;;;20.80;99.90;;;;;;4924877;29;20053;-65
2021/05/10 09:05:14;;;;;;;6.68;3.35;;;20.90;99.90;;;;;;4925156;29;20071;-65
2021/05/10 09:07:42;;;;;;;4.30;2.88;;;21.00;99.90;;;;;;4922412;29;20051;-65
2021/05/10 09:10:11;;;;;;;4.88;3.25;;;21.10;99.70;;;;;;4918929;29;20048;-66
2021/05/10 09:12:47;;;;;;;7.97;3.58;;;21.20;99.90;;;;;;4925076;29;20102;-67
2021/05/10 09:15:19;;;;;;;5.47;3.97;;;21.40;99.90;;;;;;4922950;29;20457;-67
2021/05/10 09:18:03;;;;;;;3.67;2.97;;;21.60;98.80;;;;;;4925632;29;20040;-68
2021/05/10 09:20:40;;;;;;;5.15;3.10;;;21.70;98.90;;;;;;4917817;29;20071;-67
2021/05/10 09:23:12;;;;;;;4.05;3.65;;;21.70;97.80;;;;;;4925783;28;20047;-67
2021/05/10 09:25:45;;;;;;;4.72;2.58;;;21.90;98.00;;;;;;4919375;29;20119;-67
2021/05/10 09:28:22;;;;;;;4.45;2.47;;;22.00;96.50;;;;;;4921213;28;20095;-64
2021/05/10 09:30:54;;;;;;;4.47;2.65;;;22.00;96.10;;;;;;4922552;29;20047;-64
2021/05/10 09:33:31;;;;;;;7.60;2.97;;;22.30;95.60;;;;;;4932703;29;20126;-63
2021/05/10 09:36:02;;;;;;;7.38;3.13;;;22.20;91.10;;;;;;4921327;28;20040;-63
2021/05/10 09:38:30;;;;;;;4.75;2.50;;;22.30;91.70;;;;;;4924010;29;20557;-63
2021/05/10 09:40:59;;;;;;;3.42;2.40;;;22.40;92.20;;;;;;4922072;29;20055;-63
2021/05/10 09:43:27;;;;;;;1.98;1.83;;;22.50;87.60;;;;;;4919691;29;20055;-64
2021/05/10 09:46:00;;;;;;;2.97;2.42;;;22.50;90.10;;;;;;4923053;29;20047;-64
2021/05/10 09:48:30;;;;;;;2.60;1.83;;;22.50;87.30;;;;;;4921363;29;20582;-64
2021/05/10 09:51:01;;;;;;;2.95;2.00;;;22.50;85.00;;;;;;4923385;29;20114;-65
2021/05/10 09:53:38;;;;;;;4.50;2.25;;;22.60;87.60;;;;;;4930218;29;20050;-65
2021/05/10 09:58:58;;;;;;;3.13;2.65;;;22.60;85.10;;;;;;4920322;29;20063;-65
2021/05/10 10:01:45;;;;;;;5.72;2.47;;;22.60;84.40;;;;;;4923343;29;20485;-65
2021/05/10 10:04:13;;;;;;;5.32;2.13;;;22.90;84.40;;;;;;4921698;29;20399;-65
2021/05/10 10:06:40;;;;;;;4.78;2.10;;;22.90;81.30;;;;;;4923805;29;20079;-65
2021/05/10 10:09:07;;;;;;;2.47;1.60;;;23.00;81.80;;;;;;4920632;28;20071;-66
2021/05/10 10:11:34;;;;;;;4.43;2.40;;;23.20;83.80;;;;;;4921002;29;20513;-65
2021/05/10 10:14:02;;;;;;;3.50;2.80;;;23.30;83.90;;;;;;4922659;29;20047;-65
2021/05/10 10:16:34;;;;;;;3.70;3.38;;;23.50;83.30;;;;;;4917982;29;20067;-65
2021/05/10 10:19:06;;;;;;;2.38;1.52;;;23.70;81.20;;;;;;4918104;29;20055;-66
2021/05/10 10:21:38;;;;;;;2.17;1.90;;;23.80;80.60;;;;;;4918690;29;20075;-66
2021/05/10 10:24:06;;;;;;;4.13;2.38;;;23.90;78.10;;;;;;4916221;29;20067;-65
2021/05/10 10:26:54;;;;;;;4.78;2.40;;;24.00;78.60;;;;;;4920931;29;20075;-65
2021/05/10 10:29:23;;;;;;;2.63;2.00;;;24.20;77.40;;;;;;4919854;29;20067;-66
2021/05/10 10:31:51;;;;;;;2.83;1.90;;;24.20;79.20;;;;;;4925955;29;20775;-65
2021/05/10 10:34:34;;;;;;;1.77;1.67;;;24.20;76.40;;;;;;4918016;29;20052;-66
2021/05/10 10:37:02;;;;;;;4.00;2.50;;;24.00;75.00;;;;;;4918110;29;20048;-66
2021/05/10 10:39:32;;;;;;;3.67;1.95;;;23.90;75.60;;;;;;4918291;29;20075;-66
2021/05/10 10:42:25;;;;;;;3.92;2.63;;;23.90;76.60;;;;;;4918982;29;20122;-66
2021/05/10 10:44:59;;;;;;;2.28;1.90;;;24.00;76.60;;;;;;4905297;29;20044;-66
2021/05/10 10:47:45;;;;;;;9.38;2.45;;;24.00;74.50;;;;;;4939108;28;20802;-66
2021/05/10 10:50:23;;;;;;;3.40;1.90;;;24.30;77.80;;;;;;4919786;29;20051;-66
2021/05/10 10:53:00;;;;;;;4.22;2.33;;;24.30;76.30;;;;;;4923858;29;20052;-66
2021/05/10 10:55:33;;;;;;;3.17;1.92;;;24.20;74.70;;;;;;4923388;29;20055;-66
2021/05/10 10:58:12;;;;;;;3.40;2.33;;;24.40;75.50;;;;;;4922401;29;20044;-66
2021/05/10 11:00:57;;;;;;;3.08;2.25;;;24.50;73.70;;;;;;4920680;29;20134;-66
2021/05/10 11:03:24;;;;;;;7.07;2.17;;;24.40;70.20;;;;;;4921592;29;20048;-66
2021/05/10 11:05:51;;;;;;;3.60;1.75;;;24.40;71.00;;;;;;4927164;29;20051;-66
2021/05/10 11:08:43;;;;;;;3.15;2.00;;;24.30;73.70;;;;;;4918453;29;20062;-66
2021/05/10 11:11:10;;;;;;;4.82;2.78;;;24.40;73.00;;;;;;4923808;29;20052;-66
2021/05/10 11:13:42;;;;;;;2.63;2.35;;;24.50;72.60;;;;;;4915736;29;20048;-66
2021/05/10 11:16:18;;;;;;;3.72;2.95;;;24.40;71.50;;;;;;4925854;29;20659;-66
2021/05/10 11:18:52;;;;;;;4.22;2.47;;;24.40;71.70;;;;;;4922072;29;20048;-66
2021/05/10 11:21:25;;;;;;;3.75;2.42;;;24.10;69.50;;;;;;4922331;29;20481;-66
2021/05/10 11:24:00;;;;;;;6.30;2.20;;;23.90;70.50;;;;;;4916836;29;20052;-66
2021/05/10 11:26:46;;;;;;;3.88;3.17;;;23.80;72.00;;;;;;4921469;29;20805;-66
2021/05/10 11:29:25;;;;;;;2.95;2.30;;;23.80;71.60;;;;;;4920223;29;20133;-66
2021/05/10 11:32:19;;;;;;;3.13;2.63;;;23.60;72.60;;;;;;4918970;28;20074;-66
2021/05/10 11:34:46;;;;;;;2.75;2.45;;;23.60;72.40;;;;;;4923015;29;20075;-66
2021/05/10 11:37:15;;;;;;;4.00;2.83;;;23.50;74.00;;;;;;4926392;29;20123;-66
2021/05/10 11:39:41;;;;;;;2.97;2.72;;;23.50;75.50;;;;;;4925429;29;20056;-65
2021/05/10 11:42:10;;;;;;;6.00;2.40;;;23.50;73.10;;;;;;4925879;29;20051;-66
2021/05/10 11:44:39;;;;;;;4.18;3.58;;;23.20;70.40;;;;;;4922630;28;20827;-66
2021/05/10 11:47:22;;;;;;;8.73;3.28;;;23.20;71.70;;;;;;4924033;29;20584;-66
2021/05/10 11:49:50;;;;;;;5.88;2.83;;;23.10;73.40;;;;;;4923448;29;20506;-66
2021/05/10 11:52:22;;;;;;;4.35;2.90;;;23.30;72.90;;;;;;4922305;29;20055;-66
2021/05/10 11:54:52;;;;;;;3.05;1.90;;;23.20;74.10;;;;;;4927049;29;20438;-66
2021/05/10 11:57:27;;;;;;;8.45;3.45;;;23.10;72.80;;;;;;4923171;28;20060;-66
2021/05/10 11:59:59;;;;;;;3.92;2.95;;;23.10;71.90;;;;;;4925906;29;20047;-66
2021/05/10 12:02:30;;;;;;;4.72;2.80;;;23.10;74.70;;;;;;4923898;29;20059;-67
2021/05/10 12:05:04;;;;;;;7.03;3.67;;;23.00;71.80;;;;;;4926184;29;20051;-66
2021/05/10 12:07:32;;;;;;;4.45;3.08;;;22.70;72.90;;;;;;4923469;29;20039;-66
2021/05/10 12:10:03;;;;;;;4.75;3.05;;;22.70;73.30;;;;;;4929291;29;20707;-66
2021/05/10 12:12:46;;;;;;;3.30;3.00;;;22.60;72.70;;;;;;4923352;29;20044;-66
2021/05/10 12:15:14;;;;;;;3.42;3.08;;;22.90;72.70;;;;;;4926047;29;20048;-66
2021/05/10 12:17:50;;;;;;;2.90;2.70;;;23.00;72.10;;;;;;4924741;29;20123;-66
2021/05/10 12:20:21;;;;;;;7.88;3.13;;;23.00;72.30;;;;;;4920063;29;20097;-66
2021/05/10 12:22:52;;;;;;;4.72;2.70;;;23.00;74.30;;;;;;4920320;29;20047;-66
2021/05/10 12:25:21;;;;;;;5.32;2.78;;;23.20;73.50;;;;;;4918440;29;20040;-66
2021/05/10 12:27:51;;;;;;;5.70;3.33;;;23.30;70.30;;;;;;4923832;29;20455;-66
2021/05/10 12:30:23;;;;;;;2.83;2.40;;;23.40;69.80;;;;;;4921824;29;20058;-66
2021/05/10 12:32:56;;;;;;;3.30;2.35;;;23.20;69.20;;;;;;4925851;29;20151;-66
2021/05/10 12:35:29;;;;;;;2.80;2.45;;;23.30;70.30;;;;;;4921243;29;20075;-66
2021/05/10 12:37:57;;;;;;;4.47;3.22;;;23.40;67.90;;;;;;4925154;29;20043;-66
2021/05/10 12:40:44;;;;;;;8.93;2.50;;;23.70;72.00;;;;;;4921150;29;21037;-66
2021/05/10 12:43:18;;;;;;;3.55;2.60;;;23.70;69.30;;;;;;4922504;29;20066;-66
2021/05/10 12:46:06;;;;;;;4.15;3.05;;;23.80;68.00;;;;;;4922453;29;20106;-66
2021/05/10 12:48:42;;;;;;;3.97;2.97;;;24.10;70.90;;;;;;4925372;29;20074;-66
2021/05/10 12:51:16;;;;;;;5.95;2.60;;;23.90;66.00;;;;;;4924328;29;20062;-66
2021/05/10 12:53:55;;;;;;;5.55;2.30;;;24.00;67.30;;;;;;4922294;29;20354;-66
2021/05/10 12:56:23;;;;;;;3.30;2.47;;;24.10;68.00;;;;;;4920650;29;20051;-66
2021/05/10 12:58:52;;;;;;;4.05;2.58;;;24.20;65.90;;;;;;4925968;29;20098;-66
2021/05/10 13:01:19;;;;;;;4.85;3.00;;;24.00;68.60;;;;;;4921611;29;20066;-66
2021/05/10 13:04:00;;;;;;;3.20;2.30;;;24.00;65.70;;;;;;4925937;29;20126;-66
2021/05/10 13:06:31;;;;;;;5.50;3.90;;;23.90;67.50;;;;;;4933377;28;20047;-66
2021/05/10 13:08:59;;;;;;;7.00;2.58;;;24.00;70.00;;;;;;4925216;28;20051;-66
2021/05/10 13:11:47;;;;;;;3.42;2.40;;;24.20;66.10;;;;;;4923055;29;20092;-66
2021/05/10 13:14:31;;;;;;;6.93;2.70;;;24.10;66.60;;;;;;4923211;29;20036;-66